Time;durP1;ratioP1;P1;durP2;ratioP2;P2;SDS_P1;SDS_P2;PMS_P1;PMS_P2;Temp;Humidity;BMP_temperature;BMP_pressure;BME280_temperature;BME280_humidity;BME280_pressure;Samples;Min_cycle;Max_cycle;Signal;HPM_P1;HPM_P2
2021/04/28 00:01:37;;;;;;;7.17;5.93;;;6.80;41.80;;;;;;5063481;28;20464;-80
2021/04/28 00:04:12;;;;;;;7.80;6.50;;;6.70;41.90;;;;;;5056966;28;20461;-82
2021/04/28 00:06:46;;;;;;;8.20;7.17;;;6.70;42.20;;;;;;5061609;28;20451;-80
2021/04/28 00:09:20;;;;;;;7.93;7.13;;;6.70;42.10;;;;;;5065397;28;20441;-80
2021/04/28 00:11:55;;;;;;;8.60;6.83;;;6.80;42.30;;;;;;5068836;28;20470;-81
2021/04/28 00:14:30;;;;;;;7.23;6.50;;;6.60;42.40;;;;;;5068718;28;20440;-85
2021/04/28 00:17:05;;;;;;;9.00;6.37;;;6.60;42.40;;;;;;5073205;28;20445;-83
2021/04/28 00:19:40;;;;;;;12.37;7.20;;;6.60;42.50;;;;;;5068061;28;20472;-82
2021/04/28 00:22:16;;;;;;;9.10;6.67;;;6.60;42.60;;;;;;5067751;28;20437;-83
2021/04/28 00:24:51;;;;;;;10.80;7.20;;;6.60;42.60;;;;;;5066762;28;20445;-80
2021/04/28 00:27:23;;;;;;;8.70;6.63;;;6.70;42.80;;;;;;5057571;28;20522;-83
2021/04/28 00:29:58;;;;;;;9.60;6.90;;;6.50;42.60;;;;;;5064886;28;20477;-83
2021/04/28 00:32:32;;;;;;;8.93;7.33;;;6.50;42.80;;;;;;5058661;28;21052;-81
2021/04/28 00:35:08;;;;;;;9.17;6.90;;;6.30;42.80;;;;;;5058532;28;20457;-81
2021/04/28 00:37:45;;;;;;;8.60;7.60;;;6.30;42.90;;;;;;5055498;28;20446;-81
2021/04/28 00:40:22;;;;;;;8.80;6.93;;;6.20;43.00;;;;;;5053463;28;20477;-82
2021/04/28 00:42:58;;;;;;;7.17;6.47;;;6.40;43.30;;;;;;5051861;28;20485;-84
2021/04/28 00:45:34;;;;;;;7.50;6.80;;;6.20;43.20;;;;;;5057004;28;20519;-81
2021/04/28 00:48:11;;;;;;;8.83;7.10;;;6.10;43.20;;;;;;5056286;28;20460;-80
2021/04/28 00:50:51;;;;;;;9.13;7.77;;;6.20;43.30;;;;;;5054444;28;20872;-81
2021/04/28 00:53:28;;;;;;;9.33;7.80;;;6.20;43.40;;;;;;5056752;28;20554;-83
2021/04/28 00:56:04;;;;;;;9.90;7.33;;;6.10;43.40;;;;;;5052697;28;20556;-83
2021/04/28 00:58:40;;;;;;;9.50;7.73;;;6.10;43.40;;;;;;5053515;28;20445;-81
2021/04/28 01:01:15;;;;;;;8.43;7.00;;;6.30;43.70;;;;;;5054411;28;20457;-85
2021/04/28 01:03:51;;;;;;;8.67;7.77;;;6.10;43.50;;;;;;5055760;28;20453;-79
2021/04/28 01:06:27;;;;;;;9.70;7.17;;;6.00;43.60;;;;;;5059584;28;20508;-81
2021/04/28 01:09:03;;;;;;;11.33;7.47;;;5.90;43.70;;;;;;5054074;28;20437;-80
2021/04/28 01:11:39;;;;;;;7.90;7.20;;;6.00;43.90;;;;;;5052843;28;20497;-80
2021/04/28 01:14:08;;;;;;;10.00;7.70;;;6.20;43.90;;;;;;5058368;28;20444;-79
2021/04/28 01:16:44;;;;;;;10.17;7.20;;;6.10;43.80;;;;;;5055611;28;20467;-81
2021/04/28 01:19:19;;;;;;;9.77;7.37;;;6.00;43.80;;;;;;5053943;28;20779;-80
2021/04/28 01:21:54;;;;;;;10.23;7.27;;;5.90;43.90;;;;;;5056135;28;20445;-81
2021/04/28 01:24:30;;;;;;;10.60;7.77;;;5.90;44.00;;;;;;5055955;28;20511;-80
2021/04/28 01:27:16;;;;;;;8.57;7.60;;;5.80;44.10;;;;;;5056383;28;20979;-80
2021/04/28 01:29:52;;;;;;;11.63;8.67;;;5.80;44.20;;;;;;5064149;28;20470;-81
2021/04/28 01:32:28;;;;;;;8.47;7.67;;;5.70;44.30;;;;;;5058732;28;21084;-80
2021/04/28 01:35:04;;;;;;;8.37;7.50;;;5.70;44.50;;;;;;5055529;28;20499;-81
2021/04/28 01:37:39;;;;;;;11.47;7.60;;;5.70;44.40;;;;;;5044450;28;21152;-80
2021/04/28 01:40:16;;;;;;;11.27;8.13;;;5.60;44.50;;;;;;5052506;28;20511;-80
2021/04/28 01:42:53;;;;;;;8.50;7.70;;;5.60;44.70;;;;;;5053771;28;20921;-81
2021/04/28 01:45:33;;;;;;;8.83;7.07;;;5.60;44.70;;;;;;5051638;28;20989;-81
2021/04/28 01:48:10;;;;;;;9.07;8.10;;;5.60;44.60;;;;;;5047614;28;20504;-82
2021/04/28 01:50:45;;;;;;;10.17;8.57;;;5.70;44.80;;;;;;5048556;28;21034;-80
2021/04/28 01:53:23;;;;;;;10.43;7.67;;;5.80;44.70;;;;;;5051997;28;20484;-80
2021/04/28 01:56:00;;;;;;;8.73;7.60;;;5.70;45.10;;;;;;5052966;28;20449;-80
2021/04/28 01:58:35;;;;;;;11.70;8.53;;;5.70;44.80;;;;;;5053638;28;20498;-83
2021/04/28 02:01:12;;;;;;;10.03;8.10;;;5.60;44.80;;;;;;5053815;28;20456;-80
2021/04/28 02:03:46;;;;;;;11.33;8.30;;;5.60;44.90;;;;;;5051510;28;20825;-82
2021/04/28 02:06:22;;;;;;;11.20;8.07;;;5.60;44.90;;;;;;5051226;28;20480;-80
2021/04/28 02:08:56;;;;;;;9.27;7.53;;;5.60;45.00;;;;;;5048645;28;20483;-81
2021/04/28 02:11:32;;;;;;;9.10;8.10;;;5.40;44.90;;;;;;5053585;28;20473;-80
2021/04/28 02:14:08;;;;;;;11.10;8.93;;;5.40;45.10;;;;;;5052683;28;20560;-80
2021/04/28 02:16:44;;;;;;;10.90;8.20;;;5.30;45.10;;;;;;5053672;28;21127;-80
2021/04/28 02:19:20;;;;;;;9.03;7.80;;;5.40;45.20;;;;;;5051606;28;20484;-81
2021/04/28 02:21:56;;;;;;;9.23;8.33;;;5.20;45.20;;;;;;5053388;28;20986;-86
2021/04/28 02:24:31;;;;;;;8.73;7.83;;;5.20;45.50;;;;;;5054054;28;20533;-82
2021/04/28 02:27:12;;;;;;;8.67;7.87;;;5.20;45.40;;;;;;5058781;28;20547;-80
2021/04/28 02:29:46;;;;;;;9.97;8.07;;;5.30;45.50;;;;;;5052096;28;20449;-80
2021/04/28 02:32:21;;;;;;;11.77;8.60;;;5.30;45.60;;;;;;5054000;28;20922;-80
2021/04/28 02:34:56;;;;;;;16.90;8.10;;;5.40;45.60;;;;;;5049088;28;21018;-80
2021/04/28 02:37:33;;;;;;;11.93;8.63;;;5.20;45.50;;;;;;5055063;28;20496;-77
2021/04/28 02:40:11;;;;;;;10.27;9.07;;;5.30;45.80;;;;;;5048761;28;20889;-77
2021/04/28 02:42:48;;;;;;;10.23;8.67;;;5.30;45.80;;;;;;5050295;28;20480;-79
2021/04/28 02:45:27;;;;;;;9.43;7.87;;;5.30;45.70;;;;;;5047896;28;20540;-78
2021/04/28 02:48:03;;;;;;;12.60;8.73;;;5.20;45.70;;;;;;5047184;28;20614;-79
2021/04/28 02:50:39;;;;;;;9.10;8.03;;;5.20;45.80;;;;;;5045629;28;20456;-80
2021/04/28 02:53:16;;;;;;;9.67;8.73;;;5.10;45.90;;;;;;5041290;28;20477;-78
2021/04/28 02:55:52;;;;;;;13.90;8.83;;;5.20;46.10;;;;;;5049877;28;20461;-78
2021/04/28 02:58:29;;;;;;;9.97;8.93;;;5.20;46.10;;;;;;5051644;28;20447;-80
2021/04/28 03:01:04;;;;;;;10.57;8.07;;;5.10;46.10;;;;;;5044042;28;20819;-77
2021/04/28 03:03:42;;;;;;;9.57;8.67;;;5.10;46.30;;;;;;5051864;28;20455;-78
2021/04/28 03:06:17;;;;;;;13.33;8.57;;;5.10;46.40;;;;;;5050108;28;20445;-78
2021/04/28 03:08:52;;;;;;;11.83;9.20;;;5.00;46.50;;;;;;5046125;28;20542;-77
2021/04/28 03:11:28;;;;;;;12.60;9.00;;;5.00;46.50;;;;;;5048795;28;20818;-76
2021/04/28 03:14:04;;;;;;;10.53;8.30;;;5.00;46.60;;;;;;5049635;28;20445;-76
2021/04/28 03:16:39;;;;;;;13.87;9.40;;;5.00;46.80;;;;;;5052434;28;20444;-77
2021/04/28 03:19:14;;;;;;;10.57;9.37;;;4.70;46.60;;;;;;5051361;28;20485;-77
2021/04/28 03:21:51;;;;;;;11.80;9.50;;;4.90;46.90;;;;;;5046070;28;20876;-79
2021/04/28 03:24:27;;;;;;;10.17;9.07;;;4.80;46.90;;;;;;5050632;28;20485;-77
2021/04/28 03:27:10;;;;;;;11.73;10.07;;;4.70;47.00;;;;;;5048998;28;20449;-76
2021/04/28 03:29:46;;;;;;;10.17;9.07;;;4.70;47.00;;;;;;5054770;28;20468;-76
2021/04/28 03:32:21;;;;;;;11.30;8.67;;;4.80;47.30;;;;;;5052959;28;20484;-76
2021/04/28 03:34:56;;;;;;;11.33;9.50;;;4.80;47.20;;;;;;5055577;28;20445;-79
2021/04/28 03:37:28;;;;;;;10.97;9.80;;;4.80;47.30;;;;;;5052602;28;21031;-77
2021/04/28 03:40:02;;;;;;;11.37;9.87;;;4.80;47.30;;;;;;5055145;28;20441;-76
2021/04/28 03:42:37;;;;;;;13.00;10.67;;;4.80;47.30;;;;;;5054592;28;20964;-78
2021/04/28 03:45:14;;;;;;;13.53;9.23;;;4.70;47.50;;;;;;5054033;28;20461;-79
2021/04/28 03:47:49;;;;;;;10.70;9.70;;;4.80;47.70;;;;;;5051584;28;20461;-78
2021/04/28 03:50:23;;;;;;;12.80;10.37;;;4.70;47.70;;;;;;5053257;28;20485;-76
2021/04/28 03:52:58;;;;;;;10.57;8.93;;;4.70;47.80;;;;;;5053160;28;20475;-78
2021/04/28 03:55:33;;;;;;;11.17;10.07;;;4.50;47.90;;;;;;5049256;28;20449;-79
2021/04/28 03:58:08;;;;;;;14.97;10.10;;;4.50;48.00;;;;;;5054023;28;20579;-79
2021/04/28 04:00:43;;;;;;;11.77;9.60;;;4.70;48.20;;;;;;5051414;28;20459;-76
2021/04/28 04:03:18;;;;;;;11.63;10.00;;;4.60;48.00;;;;;;5052398;28;20444;-78
2021/04/28 04:05:53;;;;;;;12.00;9.83;;;4.60;48.20;;;;;;5052373;28;20456;-76
2021/04/28 04:08:27;;;;;;;13.80;10.03;;;4.50;48.30;;;;;;5046741;28;20453;-76
2021/04/28 04:11:02;;;;;;;10.70;9.57;;;4.50;48.50;;;;;;5052865;28;21369;-76
2021/04/28 04:13:37;;;;;;;10.93;9.83;;;4.60;48.40;;;;;;5045102;28;20449;-76
2021/04/28 04:16:13;;;;;;;15.63;10.17;;;4.70;48.60;;;;;;5052525;28;20849;-77
2021/04/28 04:18:47;;;;;;;12.90;10.57;;;4.70;48.40;;;;;;5050569;28;20457;-76
2021/04/28 04:21:22;;;;;;;11.67;10.20;;;4.80;48.40;;;;;;5050723;28;20452;-76
2021/04/28 04:23:57;;;;;;;13.53;10.03;;;5.10;48.40;;;;;;5049998;28;20577;-83
2021/04/28 04:26:32;;;;;;;19.27;11.07;;;6.20;48.00;;;;;;5047503;28;20582;-78
2021/04/28 04:29:07;;;;;;;11.63;10.43;;;7.10;47.20;;;;;;5048041;28;20453;-77
2021/04/28 04:31:43;;;;;;;11.57;9.30;;;7.70;46.10;;;;;;5050037;28;20512;-79
2021/04/28 04:34:18;;;;;;;13.27;10.23;;;8.20;45.50;;;;;;5048200;28;20465;-79
2021/04/28 04:36:52;;;;;;;13.93;10.00;;;8.30;45.00;;;;;;5050018;28;20510;-80
2021/04/28 04:39:27;;;;;;;13.00;9.90;;;8.40;44.80;;;;;;5049811;28;20445;-76
2021/04/28 04:42:02;;;;;;;12.77;9.93;;;9.20;44.70;;;;;;5049156;28;20442;-77
2021/04/28 04:44:36;;;;;;;11.83;10.33;;;9.60;44.20;;;;;;5048729;28;20449;-77
2021/04/28 04:47:12;;;;;;;11.60;10.13;;;9.20;43.10;;;;;;5049261;28;20467;-82
2021/04/28 04:49:47;;;;;;;12.47;10.40;;;9.20;43.50;;;;;;5048234;28;20466;-76
2021/04/28 04:52:22;;;;;;;13.40;10.23;;;10.20;42.90;;;;;;5050321;28;20473;-77
2021/04/28 04:54:57;;;;;;;12.50;10.70;;;10.40;41.60;;;;;;5049159;28;20448;-77
2021/04/28 04:57:29;;;;;;;11.63;10.43;;;10.60;42.40;;;;;;5044723;28;20446;-76
2021/04/28 05:00:04;;;;;;;14.10;11.10;;;9.60;41.50;;;;;;5045269;28;20550;-80
2021/04/28 05:02:40;;;;;;;13.90;10.23;;;9.70;42.20;;;;;;5046304;28;20554;-78
2021/04/28 05:05:16;;;;;;;12.03;10.73;;;10.80;41.80;;;;;;5050733;28;20461;-77
2021/04/28 05:07:52;;;;;;;12.20;10.73;;;12.20;41.90;;;;;;5050412;28;20477;-77
2021/04/28 05:10:27;;;;;;;12.03;10.77;;;12.10;41.30;;;;;;5046781;28;20493;-78
2021/04/28 05:13:02;;;;;;;11.80;10.60;;;12.00;41.20;;;;;;5049770;28;20504;-78
2021/04/28 05:15:37;;;;;;;12.07;10.97;;;12.70;41.10;;;;;;5044696;28;20493;-78
2021/04/28 05:18:12;;;;;;;12.93;11.10;;;13.00;40.60;;;;;;5048831;28;20492;-78
2021/04/28 05:20:44;;;;;;;13.43;10.70;;;12.70;40.30;;;;;;5045407;28;20445;-79
2021/04/28 05:23:19;;;;;;;12.10;10.63;;;13.60;40.40;;;;;;5047510;28;20481;-81
2021/04/28 05:25:54;;;;;;;13.40;9.70;;;14.00;40.20;;;;;;5049080;28;21027;-77
2021/04/28 05:28:29;;;;;;;11.60;9.60;;;14.40;39.90;;;;;;5049498;28;20508;-80
2021/04/28 05:31:04;;;;;;;13.70;11.00;;;13.40;39.20;;;;;;5049841;28;20814;-76
2021/04/28 05:33:40;;;;;;;11.87;10.67;;;13.30;39.60;;;;;;5049727;28;20478;-77
2021/04/28 05:36:16;;;;;;;12.40;11.20;;;13.00;40.40;;;;;;5047542;28;20446;-77
2021/04/28 05:38:51;;;;;;;12.43;11.13;;;12.50;39.70;;;;;;5048598;28;20554;-77
2021/04/28 05:41:25;;;;;;;14.50;11.77;;;13.30;40.50;;;;;;5044892;28;20442;-78
2021/04/28 05:44:01;;;;;;;12.23;11.03;;;13.60;40.30;;;;;;5049591;28;20461;-80
2021/04/28 05:46:36;;;;;;;12.53;10.47;;;12.20;39.20;;;;;;5047493;28;20446;-77
2021/04/28 05:49:10;;;;;;;16.30;12.10;;;12.50;40.50;;;;;;5046094;28;20528;-78
2021/04/28 05:51:44;;;;;;;21.73;12.23;;;11.50;40.20;;;;;;5048368;28;21003;-75
2021/04/28 05:54:19;;;;;;;16.73;11.70;;;10.90;40.60;;;;;;5051080;28;20457;-76
2021/04/28 05:56:54;;;;;;;13.07;10.80;;;9.50;41.90;;;;;;5048226;28;20483;-83
2021/04/28 05:59:29;;;;;;;16.13;11.77;;;8.40;43.00;;;;;;5049783;28;20489;-78
2021/04/28 06:02:03;;;;;;;15.30;12.47;;;8.10;43.70;;;;;;5046797;28;20461;-79
2021/04/28 06:04:39;;;;;;;14.38;12.10;;;8.10;44.10;;;;;;5043757;28;20501;-80
2021/04/28 06:07:14;;;;;;;13.67;11.70;;;8.00;44.20;;;;;;5050535;28;20246;-84
2021/04/28 06:09:49;;;;;;;13.03;11.50;;;8.10;44.60;;;;;;5056702;28;20515;-83
2021/04/28 06:12:23;;;;;;;13.27;11.87;;;8.30;44.50;;;;;;5055990;28;20538;-83
2021/04/28 06:15:01;;;;;;;12.70;11.47;;;8.00;44.30;;;;;;5068131;28;20523;-83
2021/04/28 06:17:36;;;;;;;13.83;12.30;;;8.00;44.60;;;;;;5071104;28;20442;-84
2021/04/28 06:20:14;;;;;;;16.57;12.33;;;8.30;45.00;;;;;;5067735;28;21008;-83
2021/04/28 06:22:49;;;;;;;16.33;13.00;;;8.50;44.60;;;;;;5050202;28;20544;-84
2021/04/28 06:25:24;;;;;;;14.23;12.00;;;8.50;44.10;;;;;;5060129;28;20587;-82
2021/04/28 06:27:59;;;;;;;13.43;12.10;;;8.30;44.30;;;;;;5056112;28;20453;-84
2021/04/28 06:30:31;;;;;;;15.60;12.43;;;8.40;44.40;;;;;;5061129;28;20459;-84
2021/04/28 06:33:06;;;;;;;21.40;13.13;;;8.40;44.50;;;;;;5060664;28;20835;-81
2021/04/28 06:35:42;;;;;;;14.60;12.50;;;8.60;44.70;;;;;;5061025;28;20452;-81
2021/04/28 06:38:14;;;;;;;13.83;11.30;;;8.90;44.70;;;;;;5058778;28;20915;-82
2021/04/28 06:40:48;;;;;;;12.97;11.37;;;9.20;44.40;;;;;;5058056;28;20482;-80
2021/04/28 06:43:23;;;;;;;14.57;11.80;;;9.20;44.20;;;;;;5056612;28;20450;-82
2021/04/28 06:45:55;;;;;;;14.07;12.27;;;9.10;44.20;;;;;;5056325;28;20446;-82
2021/04/28 06:48:30;;;;;;;13.03;11.60;;;9.10;44.40;;;;;;5060230;28;20486;-83
2021/04/28 06:51:03;;;;;;;15.87;11.57;;;9.40;44.30;;;;;;5062037;28;20472;-81
2021/04/28 06:53:37;;;;;;;15.33;13.07;;;9.50;44.20;;;;;;5059416;28;20450;-81
2021/04/28 06:56:12;;;;;;;16.10;11.90;;;9.80;44.30;;;;;;5053728;28;20456;-80
2021/04/28 06:58:49;;;;;;;16.00;11.83;;;9.80;43.70;;;;;;5056674;28;20453;-80
2021/04/28 07:01:24;;;;;;;13.83;11.40;;;10.10;43.10;;;;;;5058599;28;20736;-81
2021/04/28 07:03:56;;;;;;;12.50;11.20;;;10.10;43.10;;;;;;5066851;28;20469;-82
2021/04/28 07:06:32;;;;;;;13.47;10.57;;;10.20;42.80;;;;;;5062180;28;20460;-81
2021/04/28 07:09:07;;;;;;;12.60;10.53;;;10.30;42.70;;;;;;5063105;28;20445;-81
2021/04/28 07:11:42;;;;;;;13.20;11.50;;;10.10;42.40;;;;;;5057982;28;20468;-79
2021/04/28 07:14:17;;;;;;;15.50;11.60;;;10.30;42.80;;;;;;5057367;28;20450;-80
2021/04/28 07:16:52;;;;;;;14.40;12.23;;;10.50;42.90;;;;;;5056671;28;20520;-81
2021/04/28 07:19:27;;;;;;;13.63;11.20;;;10.90;42.90;;;;;;5054843;28;20457;-81
2021/04/28 07:22:02;;;;;;;13.37;10.67;;;10.90;42.70;;;;;;5057106;28;20782;-80
2021/04/28 07:24:37;;;;;;;13.83;10.10;;;11.30;42.80;;;;;;5053585;28;20481;-79
2021/04/28 07:27:12;;;;;;;11.20;10.10;;;11.70;42.70;;;;;;5051867;28;20461;-79
2021/04/28 07:29:47;;;;;;;13.80;9.70;;;11.90;42.30;;;;;;5058741;28;20441;-82
2021/04/28 07:32:24;;;;;;;9.73;8.60;;;12.20;42.30;;;;;;5056657;28;20481;-80
2021/04/28 07:35:14;;;;;;;9.10;8.20;;;12.40;42.20;;;;;;5061124;28;20453;-80
2021/04/28 07:37:51;;;;;;;9.68;8.77;;;12.50;41.90;;;;;;5051362;28;20447;-80
2021/04/28 07:40:22;;;;;;;17.70;9.27;;;12.60;41.80;;;;;;5055583;28;20278;-82
2021/04/28 07:42:57;;;;;;;10.17;8.57;;;12.90;41.80;;;;;;5049646;28;20455;-78
2021/04/28 07:45:35;;;;;;;9.27;8.27;;;13.00;41.60;;;;;;5045977;28;20459;-77
2021/04/28 07:48:14;;;;;;;9.37;7.93;;;13.00;41.60;;;;;;5050731;28;20542;-80
2021/04/28 07:50:50;;;;;;;9.13;8.23;;;12.70;41.40;;;;;;5052582;28;20916;-81
2021/04/28 07:53:26;;;;;;;9.45;8.55;;;13.00;41.80;;;;;;5052630;28;20447;-81
2021/04/28 07:56:01;;;;;;;8.57;7.77;;;13.30;41.70;;;;;;5057248;28;20602;-85
2021/04/28 07:58:36;;;;;;;8.60;7.80;;;13.50;41.60;;;;;;5062917;28;20855;-83
2021/04/28 08:01:11;;;;;;;10.43;7.20;;;13.70;41.40;;;;;;5058040;28;20446;-87
2021/04/28 08:03:46;;;;;;;9.80;7.70;;;13.50;41.00;;;;;;5060101;28;20477;-82
2021/04/28 08:06:21;;;;;;;8.37;7.50;;;13.80;41.40;;;;;;5055641;28;21004;-79
2021/04/28 08:08:57;;;;;;;8.60;6.87;;;14.00;41.10;;;;;;5055834;28;20470;-79
2021/04/28 08:11:37;;;;;;;8.37;7.67;;;14.20;41.10;;;;;;5057449;28;20523;-83
2021/04/28 08:14:12;;;;;;;7.97;7.13;;;14.20;40.80;;;;;;5052697;28;20458;-80
2021/04/28 08:16:47;;;;;;;9.23;7.78;;;14.40;41.00;;;;;;5056523;28;20439;-79
2021/04/28 08:19:22;;;;;;;8.17;7.23;;;14.50;41.00;;;;;;5058209;28;20222;-84
2021/04/28 08:21:57;;;;;;;8.97;7.27;;;14.70;40.80;;;;;;5059189;28;20455;-82
2021/04/28 08:24:33;;;;;;;9.40;7.43;;;14.80;40.60;;;;;;5056917;28;20481;-80
2021/04/28 08:27:08;;;;;;;6.90;6.30;;;14.80;40.50;;;;;;5052651;28;20451;-80
2021/04/28 08:29:48;;;;;;;10.57;7.40;;;14.90;40.60;;;;;;5056664;28;20530;-80
2021/04/28 08:32:23;;;;;;;8.47;7.50;;;14.90;39.90;;;;;;5055662;28;20523;-82
2021/04/28 08:35:03;;;;;;;7.67;6.90;;;14.90;40.00;;;;;;5052937;28;20470;-80
2021/04/28 08:37:41;;;;;;;8.93;6.37;;;14.80;39.80;;;;;;5058702;28;20458;-84
2021/04/28 08:40:20;;;;;;;6.80;6.27;;;15.20;40.20;;;;;;5055278;28;20460;-84
2021/04/28 08:43:09;;;;;;;8.57;7.40;;;15.20;39.50;;;;;;5062263;28;20951;-84
2021/04/28 08:45:42;;;;;;;7.53;6.80;;;15.40;39.70;;;;;;5064577;28;20765;-83
2021/04/28 08:48:19;;;;;;;7.90;7.10;;;15.70;39.60;;;;;;5063308;28;20454;-84
2021/04/28 08:50:55;;;;;;;7.07;6.37;;;15.70;39.00;;;;;;5059622;28;20460;-84
2021/04/28 08:53:42;;;;;;;7.97;7.33;;;15.50;39.10;;;;;;5060370;28;20461;-84
2021/04/28 08:56:28;;;;;;;10.83;9.80;;;15.80;39.40;;;;;;5065228;28;20452;-85
2021/04/28 08:59:11;;;;;;;8.03;7.23;;;16.00;39.30;;;;;;5068499;28;20462;-84
2021/04/28 09:01:48;;;;;;;9.30;7.37;;;16.20;39.10;;;;;;5061543;28;20499;-83
2021/04/28 09:04:24;;;;;;;7.80;7.07;;;16.20;39.10;;;;;;5064945;28;20455;-85
2021/04/28 09:06:59;;;;;;;7.90;7.20;;;16.30;38.30;;;;;;5056814;28;20948;-85
2021/04/28 09:09:36;;;;;;;7.80;7.10;;;15.90;37.80;;;;;;5057627;28;20205;-86
2021/04/28 09:12:18;;;;;;;9.40;7.40;;;16.10;38.30;;;;;;5054233;28;20480;-85
2021/04/28 09:15:03;;;;;;;8.65;7.60;;;16.40;38.10;;;;;;5053720;28;20488;-83
2021/04/28 09:17:55;;;;;;;7.70;7.00;;;16.40;36.70;;;;;;5056784;28;20201;-84
2021/04/28 09:20:45;;;;;;;8.03;7.07;;;16.40;36.20;;;;;;5050233;28;20869;-85
2021/04/28 09:23:28;;;;;;;7.30;6.60;;;16.60;36.70;;;;;;5053760;28;20451;-87
2021/04/28 09:26:38;;;;;;;9.20;7.40;;;17.00;37.10;;;;;;5051839;28;20513;-87
2021/04/28 09:29:19;;;;;;;9.32;7.38;;;17.10;35.90;;;;;;5056710;28;20451;-83
2021/04/28 09:32:23;;;;;;;8.63;7.00;;;17.00;36.10;;;;;;5054420;28;20439;-88
2021/04/28 09:35:16;;;;;;;7.57;6.77;;;17.50;35.70;;;;;;5054593;28;20476;-85
2021/04/28 09:38:05;;;;;;;8.70;7.90;;;17.40;35.60;;;;;;5056385;28;20487;-89
2021/04/28 09:40:56;;;;;;;16.17;7.73;;;17.50;35.10;;;;;;5058730;28;20484;-84
2021/04/28 09:43:41;;;;;;;10.97;8.07;;;17.60;35.30;;;;;;5064840;28;20806;-86
2021/04/28 09:46:18;;;;;;;10.13;7.57;;;17.70;35.30;;;;;;5064169;28;20449;-87
2021/04/28 09:49:06;;;;;;;7.40;6.70;;;17.70;35.10;;;;;;5062422;28;20502;-81
2021/04/28 09:51:43;;;;;;;10.17;6.97;;;17.80;33.70;;;;;;5064862;28;20219;-83
2021/04/28 09:54:18;;;;;;;7.30;6.70;;;17.90;34.00;;;;;;5054281;28;20457;-87
2021/04/28 09:56:52;;;;;;;7.40;6.70;;;18.00;33.50;;;;;;5062425;28;20466;-85
2021/04/28 09:59:39;;;;;;;7.80;7.10;;;18.00;33.00;;;;;;5068337;28;20963;-83
2021/04/28 10:02:24;;;;;;;7.73;6.93;;;17.90;32.50;;;;;;5053707;28;20445;-84
2021/04/28 10:05:11;;;;;;;8.20;6.80;;;18.10;33.00;;;;;;5051933;28;20497;-82
2021/04/28 10:07:46;;;;;;;9.20;7.00;;;18.20;33.20;;;;;;5053596;28;20201;-82
2021/04/28 10:10:22;;;;;;;7.03;6.43;;;18.30;32.90;;;;;;5046339;28;20506;-83
2021/04/28 10:12:57;;;;;;;8.68;6.90;;;18.40;33.00;;;;;;5057886;28;20458;-85
2021/04/28 10:15:32;;;;;;;7.88;7.07;;;18.30;32.80;;;;;;5055673;28;20451;-82
2021/04/28 10:18:22;;;;;;;8.77;6.80;;;18.40;33.00;;;;;;5060251;28;20206;-86
2021/04/28 10:21:08;;;;;;;9.03;7.60;;;18.30;33.10;;;;;;5060495;28;20564;-83
2021/04/28 10:23:43;;;;;;;9.77;6.80;;;18.60;32.90;;;;;;5060811;28;20485;-82
2021/04/28 10:26:15;;;;;;;7.60;6.90;;;18.70;32.40;;;;;;5065841;28;20514;-85
2021/04/28 10:28:58;;;;;;;15.50;7.97;;;18.50;32.60;;;;;;5071856;28;20481;-86
2021/04/28 10:31:52;;;;;;;8.40;6.40;;;18.60;33.40;;;;;;5072818;28;20461;-84
2021/04/28 10:34:40;;;;;;;9.97;7.80;;;18.70;33.20;;;;;;5059075;28;20468;-84
2021/04/28 10:37:17;;;;;;;11.27;7.50;;;18.20;33.00;;;;;;5060481;28;20461;-85
2021/04/28 10:40:02;;;;;;;6.77;5.90;;;18.40;33.50;;;;;;5060241;28;20465;-87
2021/04/28 10:42:52;;;;;;;7.57;6.77;;;18.70;33.50;;;;;;5074500;28;20452;-85
2021/04/28 10:45:41;;;;;;;9.63;7.67;;;18.70;33.80;;;;;;5062910;28;20485;-83
2021/04/28 10:48:25;;;;;;;7.07;6.37;;;17.80;32.40;;;;;;5049929;28;20942;-85
2021/04/28 10:51:00;;;;;;;7.67;6.87;;;18.10;33.20;;;;;;5060600;28;20677;-84
2021/04/28 10:53:32;;;;;;;7.77;6.90;;;18.30;33.60;;;;;;5054217;28;20465;-84
2021/04/28 10:56:17;;;;;;;8.13;7.07;;;18.10;33.50;;;;;;5060840;28;20811;-89
2021/04/28 10:59:01;;;;;;;7.20;6.53;;;18.60;34.20;;;;;;5059698;28;20458;-85
2021/04/28 11:01:37;;;;;;;10.27;7.30;;;18.70;33.80;;;;;;5057094;28;20449;-83
2021/04/28 11:04:23;;;;;;;7.93;6.57;;;18.40;33.90;;;;;;5063019;28;20475;-83
2021/04/28 11:07:04;;;;;;;10.33;6.83;;;18.20;33.60;;;;;;5060556;28;20480;-85
2021/04/28 11:09:38;;;;;;;7.87;7.07;;;18.50;34.10;;;;;;5058784;28;20531;-85
2021/04/28 11:12:19;;;;;;;9.07;7.30;;;18.90;34.70;;;;;;5055779;28;20474;-84
2021/04/28 11:15:03;;;;;;;8.00;7.30;;;19.10;34.30;;;;;;5059997;28;20511;-83
2021/04/28 11:17:44;;;;;;;9.20;7.10;;;19.20;34.50;;;;;;5061479;28;20442;-87
2021/04/28 11:20:35;;;;;;;10.73;7.40;;;19.20;34.60;;;;;;5057696;28;20703;-85
2021/04/28 11:23:29;;;;;;;8.70;6.93;;;19.20;34.10;;;;;;5055673;28;20492;-84
2021/04/28 11:26:38;;;;;;;7.47;6.73;;;19.20;34.00;;;;;;5056013;28;20453;-84
2021/04/28 11:29:15;;;;;;;7.00;6.37;;;19.20;34.20;;;;;;5058994;28;20442;-83
2021/04/28 11:31:55;;;;;;;10.00;7.37;;;19.40;34.20;;;;;;5059749;28;20584;-85
2021/04/28 11:34:51;;;;;;;8.97;8.07;;;19.10;33.60;;;;;;5061800;28;20466;-83
2021/04/28 11:37:30;;;;;;;8.60;7.90;;;18.80;33.40;;;;;;5061118;28;20478;-84
2021/04/28 11:40:10;;;;;;;8.70;7.90;;;19.00;34.00;;;;;;5061971;28;20963;-85
2021/04/28 11:42:50;;;;;;;8.77;7.87;;;18.80;33.60;;;;;;5059643;28;20467;-84
2021/04/28 11:45:33;;;;;;;8.00;7.20;;;19.00;33.90;;;;;;5064168;28;20457;-86
2021/04/28 11:48:26;;;;;;;6.93;6.23;;;19.30;34.30;;;;;;5064291;28;20465;-84
2021/04/28 11:51:19;;;;;;;8.87;8.07;;;19.70;34.10;;;;;;5068715;28;20464;-84
2021/04/28 11:53:56;;;;;;;7.97;6.60;;;19.90;34.50;;;;;;5065006;28;20485;-84
2021/04/28 11:56:43;;;;;;;7.80;6.97;;;20.20;34.40;;;;;;5064538;28;20850;-83
2021/04/28 11:59:25;;;;;;;11.57;7.40;;;20.30;34.70;;;;;;5062936;28;20446;-84
2021/04/28 12:02:02;;;;;;;10.93;7.50;;;20.10;33.80;;;;;;5064895;28;20513;-84
2021/04/28 12:04:47;;;;;;;9.77;6.70;;;19.80;33.70;;;;;;5062758;28;20445;-83
2021/04/28 12:07:23;;;;;;;8.40;7.60;;;20.10;34.10;;;;;;5067160;28;20482;-83
2021/04/28 12:12:56;;;;;;;8.60;7.70;;;19.90;33.90;;;;;;5059338;28;20476;-83
2021/04/28 12:15:32;;;;;;;10.63;7.70;;;19.60;33.30;;;;;;5061400;28;20457;-84
2021/04/28 12:21:04;;;;;;;10.07;7.47;;;19.80;33.80;;;;;;5061649;28;20446;-84
2021/04/28 12:23:40;;;;;;;10.10;7.03;;;19.80;33.60;;;;;;5061755;28;20623;-84
2021/04/28 12:26:23;;;;;;;7.70;7.00;;;19.60;33.90;;;;;;5063295;28;20521;-85
2021/04/28 12:28:59;;;;;;;8.67;7.77;;;20.10;34.10;;;;;;5065038;28;20477;-84
2021/04/28 12:31:56;;;;;;;8.27;7.47;;;20.20;33.90;;;;;;5063418;28;20456;-85
2021/04/28 12:34:29;;;;;;;7.50;6.80;;;20.00;33.70;;;;;;5067316;28;20521;-83
2021/04/28 12:37:22;;;;;;;15.17;7.30;;;20.40;33.60;;;;;;5070148;28;20457;-85
2021/04/28 12:40:12;;;;;;;8.73;7.77;;;20.50;33.10;;;;;;5064045;28;20476;-84
2021/04/28 12:42:59;;;;;;;8.00;7.07;;;20.50;32.70;;;;;;5057659;28;20458;-83
2021/04/28 12:45:44;;;;;;;9.93;6.50;;;20.60;32.90;;;;;;5061715;28;20472;-85
2021/04/28 12:48:22;;;;;;;7.13;6.43;;;20.50;32.40;;;;;;5065838;28;20945;-84
2021/04/28 12:50:57;;;;;;;7.30;6.60;;;20.40;32.40;;;;;;5066082;28;20446;-83
2021/04/28 12:53:45;;;;;;;7.97;7.07;;;20.30;32.30;;;;;;5063822;28;20485;-81
2021/04/28 12:56:26;;;;;;;8.67;7.40;;;20.40;32.60;;;;;;5063739;28;20717;-85
2021/04/28 13:02:12;;;;;;;9.13;6.67;;;21.10;32.90;;;;;;5139790;27;20544;-81
2021/04/28 13:04:53;;;;;;;7.13;6.20;;;21.30;33.10;;;;;;5108299;28;20448;-83
2021/04/28 13:07:29;;;;;;;7.57;6.43;;;21.20;32.90;;;;;;5120620;28;20462;-84
2021/04/28 13:10:21;;;;;;;8.77;7.23;;;21.30;32.90;;;;;;5123898;28;20450;-78
2021/04/28 13:20:19;;;;;;;6.80;6.10;;;20.70;32.30;;;;;;5050576;28;20472;-79
2021/04/28 13:22:54;;;;;;;6.43;5.67;;;21.20;32.40;;;;;;5125604;28;20493;-80
2021/04/28 13:25:26;;;;;;;6.83;6.23;;;20.70;32.40;;;;;;5133767;28;20446;-80
2021/04/28 13:28:21;;;;;;;6.87;6.17;;;20.30;32.30;;;;;;5129545;28;20505;-81
2021/04/28 13:31:27;;;;;;;7.10;6.20;;;20.50;32.50;;;;;;5108638;28;20476;-79
2021/04/28 13:34:04;;;;;;;7.50;6.80;;;21.30;32.80;;;;;;5099291;28;20440;-81
2021/04/28 13:40:57;;;;;;;7.40;6.77;;;21.60;32.90;;;;;;5104815;28;20510;-81
2021/04/28 13:43:50;;;;;;;7.83;6.30;;;20.90;32.90;;;;;;5106042;28;20446;-82
2021/04/28 13:46:23;;;;;;;7.00;6.30;;;20.70;32.90;;;;;;5104642;28;20445;-82
2021/04/28 13:49:38;;;;;;;8.03;7.23;;;20.70;32.80;;;;;;5123743;28;20415;-83
2021/04/28 13:52:50;;;;;;;7.33;6.63;;;20.70;32.50;;;;;;5147719;27;20454;-83
2021/04/28 13:59:29;;;;;;;6.80;5.50;;;21.00;32.20;;;;;;5136525;27;20867;-78
2021/04/28 14:02:09;;;;;;;7.23;6.53;;;21.30;32.60;;;;;;5162327;27;20457;-83
2021/04/28 14:04:41;;;;;;;7.03;6.30;;;21.10;32.40;;;;;;5137019;27;20526;-79